Hauptseite
METAR-TAF:

METAR-TAF

Flughäfen :

Laupheim, Deutschland

Flugplatz Laupheim

Breite: 48-13N, Länge: 009-55E, Höhe: 538 m

Beobachtung

Neuester Wetterbericht von vor 16 Minuten, um 00:20 UTC
Wind 14 kt aus Ost/Nordost
Temperatur -3°C
Luftfeuchtigkeit 80%
Luftdruck 1014 hPa
Sichtweite: 8000 m
Geschlossene Wolkendecke in der Höhe von 1700 ft

METAR: ETHL 240020Z 07014KT 8000 OVC017 M03/M06 Q1014 WHT

Zeit: 01:36 (00:36 UTC)

Prognose

Neuester Wetterbericht von vor 13 Stunden und 45 Minuten, um 10:51 UTC
Gültige Prognose vom 23 um 09 UTC bis 23 um 18 UTC
Wind 10 kt aus Ost/Nordost, Böen bis zu 25 kt
Sichtweite: 1100 m
Geschlossene Wolkendecke in der Höhe von 1200 ft

TAF: ETHL 231051Z 2309/2318 06010G25KT 9000 NSW OVC012 CANCEL 1100

Wetterbeobachtungen und Prognosen von mehr als 4000 Flughäfen (METAR und TAF Bericht).

Die verfügbaren Stationen werden durch gelbe und rote Markierungen auf der Karte dargestellt.

Führen Sie die Maus auf sie, um den Namen der Station zu sehen.

Darauf klicken, um die Beobachtung von Wetterbeobachtungen und Prognosen zu sehen.

Um die Karte zu ändern : klicken Sie auf den grünen Tasten mit einem schwarzen Kreuz Zum Vergrößern, auf den grünen Button mit einem Gedankenstrich zu verkleinern, oder auf die grünen Pfeile für benachbarte Karten.


METAR-TAF: